Rechercher aéroport 
image banner adimage banner adimage banner ad
image banner ad

L72 - Trona

Situé à Trona, United States

ICAO - L72, IATA -

Données fournies par Airmate  

Information générale

Coordonnées: N35°48'46" W117°19'37"
Élévation : 1718 feet MSL.
Variation magnétique : 14° East
Voir autres Aéroports à California

Données opérationnelles

Special qualification required
Heure actuelle UTC:
Heure actuelle locale:
METAR: KNID 231456Z 00000KT 2SM HZ BKN040 18/M01 A2996 RMK AO2 SLP129 FU BKN040 MTNS OBSCRD FU/HZ ALQDS T01831011 53013 $
TAF: TAF KNID 2315/2415 VRB05KT 3200 FU HZ BKN040 QNH2988INS FU BKN040 FU/HZ ALQDS BECMG 2318/2320 07007KT 4800 FU HZ BKN050 QNH2982INS FU BKN050 BECMG 2401/2403 21009KT 6000 FU HZ SCT050 QNH2983INS FU SCT050 WND 180V250 T37/2323Z T16/2413Z
Voir NOTAMs / SUP AIP / TFR affectant cet aéroport [VIEW]
Fréquences de communication: [VIEW]

Pistes:

Identifiant RWYQFULongueur (ft)Largeur (ft)SurfaceLDA (ft)
17189°591060ASPH
35591060ASPH

Coordonnées de l'aéroport

Adresse: Trona United States

Vue satellite de L72